Home PIREPS Pireps

Flight BEL3815

  • Submitted By: Vincent Fourni
  • Departure Airport: Bruxelles National (EBBR)
  • Arrival Airport: Lisboa / Portela (LPPT)
  • Aircraft: A320-214 (OO-SNA)
  • Flight Time: 02.26
  • Date Submitted: 16/11/2018
  • Status: Accepted
Flight Details
Gross Revenue:
(130 load / € 232.00 per unit
€ 30,160.00
Fuel Cost:
(7219 fuel used @ 5.1 / unit)
€ 36,816.90

Additional Log Information:

View Log

Aircraft Used in flight is PMDG 737-800NGX Brussels Airlines Winglets
08:55 You Took off @ 173 Knots and Flaps at Position 3
Departure Weather
EBBR 160720Z 14003KT 120V190 0400 R25L/1000D R25R/1300N R01/1000N -DZ FG SCT001 BKN002 05/05 Q1026 TEMPO BKN001rn
08:55 You are Airborne and your Beacons are off
08:55 Landing Gear Up @ 183 Knots and 380 Feet
08:56 Below 10000 feet you are not allowed to go over 250 knots
09:00 Above FL100 you need to switch of the landing lights
11:18 Landing Gear Down @ 196 Knots and 2460 Feet
11:20 You Landed @ 124 Knots and with -200 Vertical Speed
Arrival Weather
LPPT 161000Z 06007KT 020V100 9999 FEW004 14/13 Q1016rn
11:20 Paused
11:22 Unpaused
11:22 Brussels Bel-Track1.0.1.2

Route Map

Corporate About Us Our Team Vacancies Information Fleet Route Network Rules and Regulations Operations Flight Schedules Event Center Tours Partners IVAO Vatsim Acars dev FSCB

fb Users Online No pilots online!
0 Pilot(s) and 140 Guest(s) Online
CMS by phpVMS - Design by Crazycreatives.com - Copyright © 2020 - Brussels Airlines Virtual